createdAt,value
2022-10-14T00:01:47.399Z,18.52
2022-10-14T00:04:14.768Z,17.92
2022-10-14T00:06:41.417Z,17.65
2022-10-14T00:09:09.599Z,18.65
2022-10-14T00:11:37.787Z,17.67
2022-10-14T00:14:16.915Z,18.10
2022-10-14T00:16:45.437Z,18.70
2022-10-14T00:19:13.330Z,15.90
2022-10-14T00:21:43.058Z,17.75
2022-10-14T00:24:12.593Z,15.85
2022-10-14T00:26:40.687Z,16.42
2022-10-14T00:29:11.208Z,16.30
2022-10-14T00:31:37.791Z,16.23
2022-10-14T00:34:04.730Z,17.35
2022-10-14T00:36:31.371Z,16.20
2022-10-14T00:38:58.204Z,15.32
2022-10-14T00:41:27.467Z,16.85
2022-10-14T00:44:03.007Z,16.25
2022-10-14T00:46:33.243Z,16.65
2022-10-14T00:49:03.577Z,14.80
2022-10-14T00:51:30.417Z,15.07
2022-10-14T00:53:57.091Z,15.13
2022-10-14T00:56:28.754Z,14.75
2022-10-14T00:58:56.679Z,14.27
2022-10-14T01:01:23.543Z,14.10
2022-10-14T01:03:50.283Z,14.10
2022-10-14T01:06:25.738Z,14.13
2022-10-14T01:09:24.136Z,13.27
2022-10-14T01:12:30.490Z,12.35
2022-10-14T01:15:35.711Z,13.45
2022-10-14T01:18:51.930Z,13.40
2022-10-14T01:21:32.739Z,15.13
2022-10-14T01:24:41.967Z,14.65
2022-10-14T01:27:19.652Z,15.85
2022-10-14T01:30:08.198Z,13.25
2022-10-14T01:32:48.933Z,14.40
2022-10-14T01:36:16.936Z,14.43
2022-10-14T01:39:11.200Z,13.52
2022-10-14T01:41:46.485Z,14.63
2022-10-14T01:44:16.287Z,13.52
2022-10-14T01:46:48.785Z,16.40
2022-10-14T01:51:50.723Z,13.23
2022-10-14T01:54:28.218Z,13.73
2022-10-14T01:56:59.559Z,15.45
2022-10-14T01:59:27.088Z,16.48
2022-10-14T02:01:53.747Z,15.32
2022-10-14T02:04:22.470Z,16.10
2022-10-14T02:07:00.330Z,15.93
2022-10-14T02:09:48.115Z,14.88
2022-10-14T02:12:34.517Z,15.27
2022-10-14T02:15:29.383Z,15.80
2022-10-14T02:18:37.695Z,15.65
2022-10-14T02:21:44.587Z,15.05
2022-10-14T02:24:20.215Z,15.20
2022-10-14T02:26:49.818Z,15.02
2022-10-14T02:29:20.162Z,14.48
2022-10-14T02:31:48.554Z,15.43
2022-10-14T02:34:19.291Z,15.98
2022-10-14T02:36:47.599Z,15.70
2022-10-14T02:39:21.514Z,16.30
2022-10-14T02:41:48.318Z,16.25
2022-10-14T02:44:14.923Z,13.77
2022-10-14T02:46:43.042Z,15.40
2022-10-14T02:49:09.697Z,13.90
2022-10-14T02:51:36.515Z,13.07
2022-10-14T02:54:03.542Z,13.40
2022-10-14T02:56:30.146Z,12.43
2022-10-14T02:58:56.715Z,12.13
2022-10-14T03:01:23.360Z,14.07
2022-10-14T03:03:50.205Z,18.45
2022-10-14T03:06:16.966Z,18.98
2022-10-14T03:08:43.678Z,24.30
2022-10-14T03:11:10.294Z,23.00
2022-10-14T03:13:36.848Z,25.08
2022-10-14T03:16:03.866Z,26.58
2022-10-14T03:18:31.385Z,26.27
2022-10-14T03:20:58.066Z,24.88
2022-10-14T03:23:24.863Z,25.20
2022-10-14T03:25:51.427Z,24.75
2022-10-14T03:28:18.104Z,23.52
2022-10-14T03:30:44.759Z,23.40
2022-10-14T03:33:14.764Z,22.60
2022-10-14T03:35:42.161Z,24.60
2022-10-14T03:38:08.914Z,25.98
2022-10-14T03:40:35.703Z,30.58
2022-10-14T03:43:02.660Z,26.85
2022-10-14T03:45:29.325Z,24.00
2022-10-14T03:47:56.101Z,25.58
2022-10-14T03:50:23.241Z,22.30
2022-10-14T03:52:54.625Z,22.65
2022-10-14T03:55:22.541Z,22.90
2022-10-14T03:57:49.118Z,21.05
2022-10-14T04:00:16.375Z,20.58
2022-10-14T04:02:43.075Z,20.10
2022-10-14T04:05:10.582Z,20.65
2022-10-14T04:07:37.278Z,19.83
2022-10-14T04:10:04.638Z,18.88
2022-10-14T04:12:31.673Z,17.77
2022-10-14T04:14:58.453Z,18.55
2022-10-14T04:17:25.536Z,17.73
2022-10-14T04:19:53.630Z,17.45
2022-10-14T04:22:20.809Z,16.65
2022-10-14T04:24:47.603Z,16.33
2022-10-14T04:27:14.215Z,16.95
2022-10-14T04:29:41.026Z,17.98
2022-10-14T04:32:07.619Z,16.63
2022-10-14T04:34:34.242Z,17.08
2022-10-14T04:37:01.004Z,17.23
2022-10-14T04:39:27.610Z,16.55
2022-10-14T04:41:54.447Z,17.10
2022-10-14T04:44:21.411Z,18.02
2022-10-14T04:46:48.149Z,17.55
2022-10-14T04:49:16.491Z,17.33
2022-10-14T04:51:43.399Z,17.27
2022-10-14T04:54:10.475Z,17.73
2022-10-14T04:56:37.770Z,16.67
2022-10-14T04:59:05.591Z,16.88
2022-10-14T05:01:34.256Z,17.27
2022-10-14T05:04:01.093Z,17.58
2022-10-14T05:06:28.143Z,16.02
2022-10-14T05:08:55.025Z,17.02
2022-10-14T05:11:21.704Z,16.08
2022-10-14T05:13:48.623Z,16.73
2022-10-14T05:16:15.446Z,17.00
2022-10-14T05:18:42.042Z,15.68
2022-10-14T05:21:09.027Z,17.02
2022-10-14T05:23:35.633Z,17.67
2022-10-14T05:26:02.232Z,16.98
2022-10-14T05:28:28.961Z,16.50
2022-10-14T05:30:55.780Z,17.45
2022-10-14T05:33:22.439Z,17.25
2022-10-14T05:36:04.125Z,16.02
2022-10-14T05:38:34.212Z,15.63
2022-10-14T05:41:01.582Z,14.93
2022-10-14T05:43:32.421Z,14.18
2022-10-14T05:46:00.229Z,15.48
2022-10-14T05:48:26.998Z,15.65
2022-10-14T05:50:53.612Z,13.40
2022-10-14T05:53:20.247Z,12.45
2022-10-14T05:55:47.071Z,13.20
2022-10-14T05:58:13.877Z,12.82
2022-10-14T06:00:40.515Z,12.65
2022-10-14T06:03:07.147Z,12.65
2022-10-14T06:05:37.188Z,11.80
2022-10-14T06:08:05.102Z,12.38
2022-10-14T06:10:31.785Z,11.50
2022-10-14T06:12:58.388Z,11.88
2022-10-14T06:15:24.982Z,12.10
2022-10-14T06:17:51.799Z,12.45
2022-10-14T06:20:18.551Z,13.73
2022-10-14T06:22:45.659Z,12.38
2022-10-14T06:25:12.324Z,11.93
2022-10-14T06:27:38.956Z,11.85
2022-10-14T06:30:06.424Z,14.20
2022-10-14T06:32:33.340Z,13.52
2022-10-14T06:35:00.341Z,12.50
2022-10-14T06:37:26.939Z,13.23
2022-10-14T06:39:53.593Z,13.80
2022-10-14T06:42:20.300Z,13.60
2022-10-14T06:44:47.065Z,13.75
2022-10-14T06:47:13.741Z,13.60
2022-10-14T06:49:40.380Z,14.43
2022-10-14T06:52:07.110Z,15.20
2022-10-14T06:54:38.880Z,15.55
2022-10-14T06:57:06.331Z,12.57
2022-10-14T06:59:32.978Z,12.75
2022-10-14T07:01:59.664Z,13.95
2022-10-14T07:04:26.529Z,11.25
2022-10-14T07:06:53.339Z,10.85
2022-10-14T07:09:20.233Z,11.85
2022-10-14T07:11:46.839Z,14.38
2022-10-14T07:14:13.401Z,13.15
2022-10-14T07:16:40.193Z,12.57
2022-10-14T07:19:06.769Z,11.18
2022-10-14T07:21:33.373Z,9.55
2022-10-14T07:23:59.944Z,10.38
2022-10-14T07:26:26.501Z,10.07
2022-10-14T07:28:53.225Z,9.00
2022-10-14T07:31:19.890Z,10.52
2022-10-14T07:33:46.662Z,8.55
2022-10-14T07:36:18.512Z,9.38
2022-10-14T07:38:48.438Z,10.45
2022-10-14T07:41:20.790Z,8.63
2022-10-14T07:43:52.361Z,8.98
2022-10-14T07:46:29.162Z,7.73
2022-10-14T07:49:00.561Z,8.90
2022-10-14T07:51:27.891Z,5.43
2022-10-14T07:53:56.328Z,6.78
2022-10-14T07:56:23.702Z,8.68
2022-10-14T07:58:50.510Z,8.75
2022-10-14T08:01:18.844Z,7.20
2022-10-14T08:03:47.278Z,8.23
2022-10-14T08:06:14.398Z,7.07
2022-10-14T08:08:42.013Z,7.47
2022-10-14T08:11:14.495Z,8.23
2022-10-14T08:13:45.055Z,8.35
2022-10-14T08:16:15.417Z,8.70
2022-10-14T08:18:42.359Z,7.60
2022-10-14T08:21:09.059Z,8.10
2022-10-14T08:23:35.666Z,8.52
2022-10-14T08:26:02.260Z,24.20
2022-10-14T08:28:29.268Z,46.67
2022-10-14T08:30:56.334Z,13.38
2022-10-14T08:33:22.897Z,6.10
2022-10-14T08:35:53.850Z,6.82
2022-10-14T08:38:25.200Z,6.45
2022-10-14T08:41:24.845Z,6.30
2022-10-14T08:44:25.735Z,4.78
2022-10-14T08:47:01.076Z,4.35
2022-10-14T08:49:49.441Z,5.35
2022-10-14T08:52:25.625Z,3.15
2022-10-14T08:55:00.903Z,2.47
2022-10-14T08:57:36.710Z,2.83
2022-10-14T09:00:04.558Z,2.47
2022-10-14T09:02:40.194Z,2.00
2022-10-14T09:05:09.883Z,2.38
2022-10-14T09:07:37.216Z,2.25
2022-10-14T09:10:08.446Z,2.50
2022-10-14T09:12:36.520Z,2.28
2022-10-14T09:15:24.854Z,2.65
2022-10-14T09:18:43.921Z,2.42
2022-10-14T09:21:51.808Z,2.70
2022-10-14T09:24:25.332Z,2.88
2022-10-14T09:29:40.329Z,2.63
2022-10-14T09:32:15.639Z,2.13
2022-10-14T09:34:48.645Z,2.80
2022-10-14T09:37:35.191Z,2.90
2022-10-14T09:40:34.087Z,2.67
2022-10-14T09:43:21.217Z,2.40
2022-10-14T09:46:00.425Z,2.47
2022-10-14T09:48:53.475Z,2.90
2022-10-14T09:51:23.805Z,2.00
2022-10-14T09:53:58.515Z,2.20
2022-10-14T09:56:45.271Z,2.25
2022-10-14T09:59:22.744Z,1.80
2022-10-14T10:01:55.549Z,2.00
2022-10-14T10:04:47.190Z,1.83
2022-10-14T10:07:24.765Z,1.88
2022-10-14T10:09:56.281Z,4.43
2022-10-14T10:12:28.916Z,2.40
2022-10-14T10:14:58.180Z,2.85
2022-10-14T10:17:27.266Z,2.50
2022-10-14T10:20:33.793Z,4.65
2022-10-14T10:23:28.939Z,47.35
2022-10-14T10:25:55.691Z,62.45
2022-10-14T10:28:32.782Z,12.38
2022-10-14T10:31:28.984Z,4.43
2022-10-14T10:34:36.138Z,18.48
2022-10-14T10:37:31.582Z,7.38
2022-10-14T10:40:37.028Z,5.53
2022-10-14T10:43:55.080Z,3.50
2022-10-14T10:46:45.142Z,2.63
2022-10-14T10:49:40.632Z,1.83
2022-10-14T10:52:23.482Z,2.08
2022-10-14T10:55:19.448Z,1.90
2022-10-14T10:58:07.483Z,1.63
2022-10-14T11:00:49.802Z,1.90
2022-10-14T11:03:44.482Z,1.65
2022-10-14T11:06:41.956Z,1.75
2022-10-14T11:09:38.227Z,2.00
2022-10-14T11:12:47.014Z,2.33
2022-10-14T11:15:23.581Z,2.10
2022-10-14T11:17:58.899Z,2.00
2022-10-14T11:21:36.049Z,3.15
2022-10-14T11:24:48.447Z,2.00
2022-10-14T11:27:48.844Z,1.88
2022-10-14T11:30:37.771Z,1.73
2022-10-14T11:33:39.866Z,1.85
2022-10-14T11:36:38.164Z,2.05
2022-10-14T11:39:33.341Z,1.70
2022-10-14T11:42:41.506Z,1.30
2022-10-14T11:45:35.525Z,1.42
2022-10-14T11:48:20.326Z,1.98
2022-10-14T11:50:52.540Z,1.77
2022-10-14T11:53:25.209Z,1.85
2022-10-14T11:56:04.882Z,1.92
2022-10-14T11:58:35.500Z,1.70
2022-10-14T12:01:20.601Z,2.40
2022-10-14T12:04:18.348Z,1.42
2022-10-14T12:06:55.721Z,1.10
2022-10-14T12:09:28.422Z,2.20
2022-10-14T12:12:02.972Z,1.90
2022-10-14T12:14:34.726Z,2.00
2022-10-14T12:17:06.411Z,1.45
2022-10-14T12:19:33.800Z,6.10
2022-10-14T12:22:22.060Z,3.70
2022-10-14T12:24:58.874Z,2.20
2022-10-14T12:27:28.700Z,2.60
2022-10-14T12:29:58.428Z,2.47
2022-10-14T12:32:31.952Z,2.13
2022-10-14T12:35:02.410Z,2.70
2022-10-14T12:37:50.716Z,1.75
2022-10-14T12:40:23.976Z,2.45
2022-10-14T12:42:59.003Z,1.60
2022-10-14T12:45:28.904Z,1.60
2022-10-14T12:48:26.536Z,1.65
2022-10-14T12:51:10.570Z,1.83
2022-10-14T12:53:46.658Z,2.13
2022-10-14T12:56:29.728Z,1.90
2022-10-14T12:59:01.344Z,1.30
2022-10-14T13:01:32.359Z,1.83
2022-10-14T13:04:17.494Z,1.80
2022-10-14T13:07:41.263Z,1.80
2022-10-14T13:10:59.530Z,1.48
2022-10-14T13:13:59.775Z,1.33
2022-10-14T13:17:06.876Z,1.80
2022-10-14T13:19:44.495Z,1.38
2022-10-14T13:22:38.415Z,1.45
2022-10-14T13:25:12.983Z,1.60
2022-10-14T13:28:05.112Z,1.40
2022-10-14T13:31:12.964Z,1.75
2022-10-14T13:34:12.695Z,1.42
2022-10-14T13:36:56.311Z,1.35
2022-10-14T13:39:23.281Z,1.30
2022-10-14T13:41:50.706Z,1.80
2022-10-14T13:44:21.853Z,1.30
2022-10-14T13:46:50.017Z,1.52
2022-10-14T13:49:33.760Z,1.67
2022-10-14T13:52:04.562Z,1.30
2022-10-14T13:54:31.666Z,1.88
2022-10-14T14:00:43.664Z,1.52
2022-10-14T14:03:40.214Z,2.03
2022-10-14T14:06:15.443Z,1.80
2022-10-14T14:08:51.218Z,2.00
2022-10-14T14:11:27.115Z,1.83
2022-10-14T14:14:01.795Z,2.28
2022-10-14T14:16:51.789Z,2.13
2022-10-14T14:19:21.569Z,2.65
2022-10-14T14:21:48.202Z,2.22
2022-10-14T14:24:25.413Z,2.92
2022-10-14T14:26:54.835Z,3.08
2022-10-14T14:29:26.928Z,3.08
2022-10-14T14:32:06.102Z,3.08
2022-10-14T14:34:35.824Z,3.25
2022-10-14T14:37:23.576Z,3.30
2022-10-14T14:40:20.206Z,4.07
2022-10-14T14:42:50.238Z,3.13
2022-10-14T14:45:21.007Z,3.55
2022-10-14T14:47:50.033Z,3.15
2022-10-14T14:50:35.424Z,3.67
2022-10-14T14:53:11.679Z,3.70
2022-10-14T14:56:14.316Z,3.33
2022-10-14T14:58:52.401Z,3.47
2022-10-14T15:01:27.775Z,3.15
2022-10-14T15:04:15.400Z,3.67
2022-10-14T15:06:51.526Z,3.10
2022-10-14T15:09:28.949Z,3.60
2022-10-14T15:11:58.006Z,3.03
2022-10-14T15:14:30.684Z,3.13
2022-10-14T15:16:57.674Z,4.15
2022-10-14T15:19:37.302Z,3.42
2022-10-14T15:22:17.175Z,3.67
2022-10-14T15:25:06.802Z,3.03
2022-10-14T15:27:51.127Z,4.10
2022-10-14T15:30:50.503Z,3.55
2022-10-14T15:33:21.101Z,4.15
2022-10-14T15:35:57.043Z,4.57
2022-10-14T15:38:24.718Z,3.50
2022-10-14T15:40:54.810Z,3.88
2022-10-14T15:43:27.270Z,3.65
2022-10-14T15:48:46.033Z,4.63
2022-10-14T15:51:19.683Z,3.90
2022-10-14T15:53:46.694Z,4.40
2022-10-14T15:56:13.467Z,4.85
2022-10-14T15:58:40.204Z,4.43
2022-10-14T16:01:07.218Z,4.63
2022-10-14T16:03:37.259Z,4.57
2022-10-14T16:06:05.916Z,5.70
2022-10-14T16:08:33.558Z,4.55
2022-10-14T16:11:00.361Z,4.10
2022-10-14T16:13:27.101Z,5.75
2022-10-14T16:15:58.754Z,5.45
2022-10-14T16:18:27.183Z,5.72
2022-10-14T16:20:53.977Z,6.50
2022-10-14T16:23:22.645Z,6.60
2022-10-14T16:25:50.471Z,5.78
2022-10-14T16:28:17.984Z,5.70
2022-10-14T16:30:49.374Z,4.97
2022-10-14T16:33:19.990Z,6.13
2022-10-14T16:35:51.046Z,5.85
2022-10-14T16:38:19.126Z,10.18
2022-10-14T16:40:45.777Z,10.00
2022-10-14T16:43:12.416Z,8.65
2022-10-14T16:45:41.790Z,9.73
2022-10-14T16:48:08.541Z,10.15
2022-10-14T16:50:35.239Z,10.70
2022-10-14T16:53:20.401Z,10.75
2022-10-14T16:55:47.566Z,9.05
2022-10-14T16:58:15.655Z,8.43
2022-10-14T17:00:42.303Z,8.32
2022-10-14T17:03:09.008Z,8.52
2022-10-14T17:05:38.087Z,9.30
2022-10-14T17:08:05.102Z,9.20
2022-10-14T17:10:31.898Z,7.32
2022-10-14T17:12:58.632Z,7.35
2022-10-14T17:15:25.252Z,8.13
2022-10-14T17:17:53.195Z,8.25
2022-10-14T17:20:21.874Z,8.20
2022-10-14T17:22:49.846Z,7.93
2022-10-14T17:25:17.839Z,7.10
2022-10-14T17:27:44.453Z,8.50
2022-10-14T17:30:11.676Z,8.30
2022-10-14T17:32:38.437Z,9.52
2022-10-14T17:35:06.520Z,9.05
2022-10-14T17:37:34.232Z,8.27
2022-10-14T17:40:00.871Z,7.90
2022-10-14T17:42:27.463Z,9.25
2022-10-14T17:44:54.110Z,8.52
2022-10-14T17:47:20.934Z,8.15
2022-10-14T17:49:48.117Z,7.50
2022-10-14T17:52:14.791Z,8.82
2022-10-14T17:54:41.607Z,8.05
2022-10-14T17:57:08.540Z,8.23
2022-10-14T17:59:35.264Z,9.02
2022-10-14T18:02:03.369Z,9.23
2022-10-14T18:04:32.977Z,8.88
2022-10-14T18:06:59.749Z,10.57
2022-10-14T18:09:26.441Z,10.88
2022-10-14T18:12:08.101Z,10.07
2022-10-14T18:17:02.265Z,7.25
2022-10-14T18:19:29.276Z,6.70
2022-10-14T18:21:56.045Z,8.07
2022-10-14T18:24:23.348Z,10.95
2022-10-14T18:26:53.440Z,9.73
2022-10-14T18:29:20.170Z,7.60
2022-10-14T18:31:48.879Z,7.50
2022-10-14T18:34:15.662Z,6.65
2022-10-14T18:36:42.442Z,6.70
2022-10-14T18:39:11.454Z,6.18
2022-10-14T18:41:38.241Z,6.10
2022-10-14T18:44:06.566Z,6.65
2022-10-14T18:46:38.475Z,6.60
2022-10-14T18:49:07.934Z,6.93
2022-10-14T18:51:37.090Z,6.35
2022-10-14T18:54:11.219Z,7.30
2022-10-14T18:56:38.846Z,5.97
2022-10-14T18:59:09.162Z,7.30
2022-10-14T19:01:37.470Z,7.82
2022-10-14T19:04:06.070Z,7.03
2022-10-14T19:06:34.283Z,5.45
2022-10-14T19:09:01.918Z,6.07
2022-10-14T19:11:29.692Z,5.57
2022-10-14T19:13:58.396Z,6.00
2022-10-14T19:16:30.839Z,5.32
2022-10-14T19:21:30.519Z,5.90
2022-10-14T19:23:58.682Z,6.95
2022-10-14T19:26:28.605Z,6.20
2022-10-14T19:28:57.706Z,5.45
2022-10-14T19:31:26.863Z,5.80
2022-10-14T19:33:54.609Z,7.03
2022-10-14T19:36:22.687Z,7.13
2022-10-14T19:38:52.367Z,6.88
2022-10-14T19:41:19.105Z,6.82
2022-10-14T19:43:46.093Z,8.27
2022-10-14T19:46:13.810Z,7.28
2022-10-14T19:48:41.025Z,8.73
2022-10-14T19:51:11.591Z,7.57
2022-10-14T19:53:40.137Z,8.55
2022-10-14T19:56:09.474Z,6.88
2022-10-14T19:58:39.657Z,7.97
2022-10-14T20:01:15.881Z,7.88
2022-10-14T20:03:43.145Z,7.63
2022-10-14T20:06:11.976Z,7.47
2022-10-14T20:08:39.151Z,7.40
2022-10-14T20:11:07.980Z,7.38
2022-10-14T20:13:35.151Z,8.73
2022-10-14T20:16:02.616Z,8.13
2022-10-14T20:18:33.190Z,11.82
2022-10-14T20:21:01.806Z,12.18
2022-10-14T20:23:28.650Z,11.70
2022-10-14T20:26:02.906Z,14.68
2022-10-14T20:28:29.828Z,11.20
2022-10-14T20:30:57.427Z,10.68
2022-10-14T20:33:25.214Z,11.10
2022-10-14T20:36:07.753Z,10.93
2022-10-14T20:38:34.594Z,11.30
2022-10-14T20:41:12.787Z,9.27
2022-10-14T20:43:40.290Z,11.07
2022-10-14T20:46:06.893Z,12.32
2022-10-14T20:48:33.750Z,10.23
2022-10-14T20:51:03.935Z,12.07
2022-10-14T20:53:31.145Z,12.90
2022-10-14T20:56:02.846Z,12.55
2022-10-14T20:58:29.506Z,11.77
2022-10-14T21:01:08.183Z,10.38
2022-10-14T21:03:35.103Z,10.77
2022-10-14T21:06:03.538Z,10.13
2022-10-14T21:08:30.268Z,9.55
2022-10-14T21:11:12.143Z,11.05
2022-10-14T21:13:47.487Z,9.63
2022-10-14T21:16:21.413Z,9.68
2022-10-14T21:18:53.717Z,9.77
2022-10-14T21:21:29.503Z,9.65
2022-10-14T21:23:56.473Z,9.98
2022-10-14T21:26:23.443Z,9.88
2022-10-14T21:28:50.132Z,8.45
2022-10-14T21:31:19.144Z,8.35
2022-10-14T21:33:59.858Z,8.88
2022-10-14T21:36:29.783Z,9.57
2022-10-14T21:38:57.158Z,8.55
2022-10-14T21:41:24.666Z,8.32
2022-10-14T21:43:51.455Z,8.85
2022-10-14T21:46:18.202Z,10.05
2022-10-14T21:48:45.399Z,10.10
2022-10-14T21:51:17.434Z,9.25
2022-10-14T21:53:45.540Z,8.95
2022-10-14T21:56:14.559Z,8.13
2022-10-14T21:58:41.595Z,8.20
2022-10-14T22:01:09.804Z,7.20
2022-10-14T22:03:37.829Z,7.03
2022-10-14T22:06:07.418Z,7.13
2022-10-14T22:08:36.479Z,7.50
2022-10-14T22:11:04.220Z,7.38
2022-10-14T22:13:31.082Z,8.88
2022-10-14T22:15:57.997Z,7.82
2022-10-14T22:18:24.626Z,9.02
2022-10-14T22:21:00.996Z,7.68
2022-10-14T22:23:27.628Z,7.45
2022-10-14T22:25:54.663Z,8.18
2022-10-14T22:28:21.314Z,8.90
2022-10-14T22:30:47.916Z,7.85
2022-10-14T22:33:14.507Z,7.82
2022-10-14T22:35:41.300Z,7.57
2022-10-14T22:38:07.886Z,8.10
2022-10-14T22:40:34.748Z,8.20
2022-10-14T22:43:01.406Z,7.90
2022-10-14T22:45:28.151Z,7.80
2022-10-14T22:47:54.941Z,7.57
2022-10-14T22:50:21.578Z,7.72
2022-10-14T22:52:48.139Z,7.63
2022-10-14T22:55:14.996Z,8.20
2022-10-14T22:57:41.896Z,7.90
2022-10-14T23:00:09.416Z,9.40
2022-10-14T23:02:36.050Z,9.10
2022-10-14T23:05:02.820Z,9.13
2022-10-14T23:07:29.535Z,8.90
2022-10-14T23:09:56.340Z,9.23
2022-10-14T23:12:23.100Z,8.40
2022-10-14T23:14:51.287Z,8.65
2022-10-14T23:17:17.822Z,7.82
2022-10-14T23:19:44.377Z,7.70
2022-10-14T23:22:11.189Z,7.72
2022-10-14T23:24:37.950Z,8.25
2022-10-14T23:27:04.562Z,8.52
2022-10-14T23:29:31.150Z,8.45
2022-10-14T23:31:58.153Z,9.65
2022-10-14T23:34:25.013Z,8.25
2022-10-14T23:36:51.828Z,9.30
2022-10-14T23:39:18.474Z,10.07
2022-10-14T23:41:45.176Z,10.20
2022-10-14T23:44:12.172Z,10.43
2022-10-14T23:46:38.977Z,8.82
2022-10-14T23:49:14.354Z,10.18
2022-10-14T23:51:51.893Z,9.07
2022-10-14T23:54:18.526Z,9.15
2022-10-14T23:56:45.363Z,9.35
2022-10-14T23:59:12.279Z,9.60
